createdAt,value
2023-03-22T00:00:01.045Z,0.70
2023-03-22T00:02:30.458Z,0.70
2023-03-22T00:04:57.883Z,0.70
2023-03-22T00:07:25.130Z,0.70
2023-03-22T00:09:52.335Z,0.60
2023-03-22T00:12:19.257Z,0.60
2023-03-22T00:14:46.885Z,0.60
2023-03-22T00:17:13.909Z,0.60
2023-03-22T00:19:42.300Z,0.50
2023-03-22T00:22:09.335Z,0.50
2023-03-22T00:24:37.543Z,0.60
2023-03-22T00:27:04.606Z,0.60
2023-03-22T00:29:31.827Z,0.60
2023-03-22T00:31:58.739Z,0.70
2023-03-22T00:34:27.166Z,0.70
2023-03-22T00:36:56.260Z,0.70
2023-03-22T00:39:23.493Z,0.80
2023-03-22T00:41:51.220Z,0.80
2023-03-22T00:44:18.507Z,0.80
2023-03-22T00:46:45.442Z,0.80
2023-03-22T00:49:12.710Z,0.70
2023-03-22T00:51:39.718Z,0.60
2023-03-22T00:54:06.912Z,0.50
2023-03-22T00:56:34.033Z,0.50
2023-03-22T00:59:01.286Z,0.50
2023-03-22T01:01:29.012Z,0.40
2023-03-22T01:03:56.462Z,0.30
2023-03-22T01:06:23.415Z,0.30
2023-03-22T01:08:51.035Z,0.30
2023-03-22T01:11:18.293Z,0.30
2023-03-22T01:13:45.653Z,0.30
2023-03-22T01:16:12.683Z,0.30
2023-03-22T01:18:39.954Z,0.40
2023-03-22T01:21:07.418Z,0.40
2023-03-22T01:23:34.830Z,0.40
2023-03-22T01:26:02.154Z,0.40
2023-03-22T01:28:30.279Z,0.40
2023-03-22T01:31:00.716Z,0.40
2023-03-22T01:33:27.971Z,0.40
2023-03-22T01:35:54.991Z,0.40
2023-03-22T01:38:22.311Z,0.30
2023-03-22T01:40:49.349Z,0.40
2023-03-22T01:43:17.608Z,0.40
2023-03-22T01:45:48.642Z,0.30
2023-03-22T01:48:26.108Z,0.10
2023-03-22T01:51:16.262Z,0.10
2023-03-22T01:53:48.631Z,0.00
2023-03-22T01:56:19.361Z,0.00
2023-03-22T01:58:48.346Z,0.00
2023-03-22T02:01:16.121Z,-0.10
2023-03-22T02:04:03.489Z,-0.10
2023-03-22T02:06:32.362Z,-0.10
2023-03-22T02:08:59.617Z,-0.10
2023-03-22T02:11:33.534Z,-0.20
2023-03-22T02:14:23.512Z,-0.20
2023-03-22T02:17:24.860Z,-0.10
2023-03-22T02:20:11.113Z,-0.10
2023-03-22T02:23:12.242Z,-0.20
2023-03-22T02:25:54.336Z,-0.20
2023-03-22T02:28:33.625Z,-0.20
2023-03-22T02:31:35.997Z,-0.20
2023-03-22T02:34:15.718Z,-0.20
2023-03-22T02:37:16.338Z,-0.10
2023-03-22T02:40:24.248Z,-0.10
2023-03-22T02:42:54.341Z,-0.10
2023-03-22T02:45:48.293Z,0.00
2023-03-22T02:48:19.057Z,0.10
2023-03-22T02:50:51.188Z,0.10
2023-03-22T02:53:46.184Z,0.00
2023-03-22T02:56:33.885Z,0.00
2023-03-22T02:59:06.235Z,0.00
2023-03-22T03:01:48.445Z,0.10
2023-03-22T03:04:24.638Z,0.10
2023-03-22T03:06:55.084Z,0.20
2023-03-22T03:09:23.160Z,0.20
2023-03-22T03:11:54.569Z,0.20
2023-03-22T03:14:24.527Z,0.20
2023-03-22T03:17:10.600Z,0.20
2023-03-22T03:19:48.121Z,0.30
2023-03-22T03:22:29.166Z,0.30
2023-03-22T03:25:14.231Z,0.30
2023-03-22T03:27:51.486Z,0.40
2023-03-22T03:30:28.535Z,0.40
2023-03-22T03:33:00.759Z,0.40
2023-03-22T03:35:43.733Z,0.40
2023-03-22T03:38:17.529Z,0.40
2023-03-22T03:40:50.386Z,0.40
2023-03-22T03:43:18.909Z,0.40
2023-03-22T03:45:46.779Z,0.50
2023-03-22T03:48:34.838Z,0.50
2023-03-22T03:51:02.831Z,0.50
2023-03-22T03:53:31.109Z,0.50
2023-03-22T03:55:58.373Z,0.50
2023-03-22T03:58:25.554Z,0.50
2023-03-22T04:00:52.817Z,0.50
2023-03-22T04:03:19.769Z,0.50
2023-03-22T04:05:46.957Z,0.50
2023-03-22T04:08:14.225Z,0.50
2023-03-22T04:10:41.632Z,0.50
2023-03-22T04:13:08.672Z,0.50
2023-03-22T04:15:35.935Z,0.40
2023-03-22T04:18:03.004Z,0.50
2023-03-22T04:20:30.287Z,0.50
2023-03-22T04:22:58.173Z,0.50
2023-03-22T04:25:29.914Z,0.50
2023-03-22T04:27:56.968Z,0.50
2023-03-22T04:30:24.771Z,0.50
2023-03-22T04:32:51.832Z,0.50
2023-03-22T04:35:19.141Z,0.50
2023-03-22T04:37:46.105Z,0.60
2023-03-22T04:40:16.356Z,0.60
2023-03-22T04:42:44.600Z,0.60
2023-03-22T04:45:13.530Z,0.60
2023-03-22T04:47:40.802Z,0.60
2023-03-22T04:50:09.235Z,0.60
2023-03-22T04:52:36.198Z,0.60
2023-03-22T04:55:03.572Z,0.70
2023-03-22T04:57:30.563Z,0.70
2023-03-22T04:59:57.799Z,0.70
2023-03-22T05:02:24.757Z,0.70
2023-03-22T05:04:52.037Z,0.80
2023-03-22T05:07:18.995Z,0.80
2023-03-22T05:09:46.223Z,0.80
2023-03-22T05:12:13.213Z,0.90
2023-03-22T05:14:40.701Z,1.00
2023-03-22T05:17:07.699Z,1.10
2023-03-22T05:19:34.981Z,1.20
2023-03-22T05:22:02.184Z,1.20
2023-03-22T05:24:30.631Z,1.20
2023-03-22T05:27:00.925Z,1.30
2023-03-22T05:29:28.795Z,1.30
2023-03-22T05:31:55.806Z,1.40
2023-03-22T05:34:23.158Z,1.30
2023-03-22T05:36:51.628Z,1.50
2023-03-22T05:39:19.080Z,1.60
2023-03-22T05:41:46.498Z,1.70
2023-03-22T05:44:13.773Z,1.70
2023-03-22T05:46:41.149Z,1.90
2023-03-22T05:49:09.360Z,1.90
2023-03-22T05:51:41.540Z,2.10
2023-03-22T05:54:09.735Z,2.20
2023-03-22T05:56:36.959Z,2.40
2023-03-22T05:59:05.005Z,2.50
2023-03-22T06:01:33.516Z,2.70
2023-03-22T06:04:00.965Z,3.00
2023-03-22T06:06:28.289Z,3.10
2023-03-22T06:09:04.334Z,3.20
2023-03-22T06:11:41.388Z,3.30
2023-03-22T06:14:08.618Z,3.40
2023-03-22T06:16:35.657Z,3.40
2023-03-22T06:19:02.958Z,3.80
2023-03-22T06:21:29.933Z,4.30
2023-03-22T06:23:57.175Z,4.70
2023-03-22T06:26:24.123Z,5.20
2023-03-22T06:28:51.481Z,5.60
2023-03-22T06:31:18.543Z,5.90
2023-03-22T06:33:46.508Z,6.20
2023-03-22T06:36:13.464Z,6.50
2023-03-22T06:38:40.799Z,6.80
2023-03-22T06:41:07.722Z,7.10
2023-03-22T06:43:34.950Z,7.20
2023-03-22T06:46:01.985Z,7.20
2023-03-22T06:48:29.341Z,7.50
2023-03-22T06:50:56.394Z,7.80
2023-03-22T06:53:23.597Z,8.20
2023-03-22T06:55:51.484Z,8.50
2023-03-22T06:58:19.654Z,8.80
2023-03-22T07:00:46.625Z,9.00
2023-03-22T07:03:14.018Z,9.00
2023-03-22T07:05:41.018Z,9.00
2023-03-22T07:08:08.283Z,9.00
2023-03-22T07:10:35.342Z,9.30
2023-03-22T07:13:03.259Z,9.40
2023-03-22T07:15:30.979Z,9.40
2023-03-22T07:17:59.543Z,9.70
2023-03-22T07:20:26.750Z,10.20
2023-03-22T07:22:53.994Z,10.50
2023-03-22T07:25:21.053Z,10.70
2023-03-22T07:27:48.354Z,10.60
2023-03-22T07:30:15.561Z,10.60
2023-03-22T07:32:42.819Z,10.50
2023-03-22T07:35:09.897Z,10.60
2023-03-22T07:37:37.314Z,10.80
2023-03-22T07:40:04.997Z,10.90
2023-03-22T07:42:32.433Z,11.10
2023-03-22T07:44:59.403Z,11.50
2023-03-22T07:47:39.935Z,11.80
2023-03-22T07:50:08.166Z,12.10
2023-03-22T07:52:35.684Z,12.40
2023-03-22T07:55:02.596Z,12.60
2023-03-22T07:57:29.844Z,12.30
